Terminal Aerodrome Forecast
Issued by NWS Charleston, WV

Current Version | Previous Version | Text Only | Print | Product List | Glossary Off
Versions: 1 2 3 4 5 6 7 8 9 10 11 12 13 14 15 16 17 18 19 20

000
FTUS41 KRLX 261139
TAFHTS
TAF
KHTS 261139Z 2612/2712 00000KT P6SM BKN060
     FM261700 36005KT P6SM SCT045
     FM270000 00000KT P6SM SKC
     FM270600 00000KT P6SM SCT040=

USA.gov is the U.S. government's official web portal to all federal, state and local government web resources and services.